sensor_id;sensor_type;location;lat;lon;timestamp;P1;durP1;ratioP1;P2;durP2;ratioP2
83184;SDS011;73080;48.768;11.528;2024-01-11T00:01:16;22.27;;;8.77;;
83184;SDS011;73080;48.768;11.528;2024-01-11T00:03:41;33.28;;;14.98;;
83184;SDS011;73080;48.768;11.528;2024-01-11T00:06:06;17.98;;;11.10;;
83184;SDS011;73080;48.768;11.528;2024-01-11T00:08:32;22.73;;;10.53;;
83184;SDS011;73080;48.768;11.528;2024-01-11T00:10:57;28.40;;;11.60;;
83184;SDS011;73080;48.768;11.528;2024-01-11T00:13:23;20.13;;;11.05;;
83184;SDS011;73080;48.768;11.528;2024-01-11T00:15:48;26.80;;;14.40;;
83184;SDS011;73080;48.768;11.528;2024-01-11T00:18:13;22.15;;;11.88;;
83184;SDS011;73080;48.768;11.528;2024-01-11T00:20:39;16.00;;;11.23;;
83184;SDS011;73080;48.768;11.528;2024-01-11T00:23:04;21.35;;;10.85;;
83184;SDS011;73080;48.768;11.528;2024-01-11T00:25:30;21.92;;;11.23;;
83184;SDS011;73080;48.768;11.528;2024-01-11T00:27:55;24.38;;;16.85;;
83184;SDS011;73080;48.768;11.528;2024-01-11T00:30:21;40.43;;;16.53;;
83184;SDS011;73080;48.768;11.528;2024-01-11T00:32:46;20.60;;;9.83;;
83184;SDS011;73080;48.768;11.528;2024-01-11T00:35:11;28.92;;;15.30;;
83184;SDS011;73080;48.768;11.528;2024-01-11T00:37:37;38.10;;;18.45;;
83184;SDS011;73080;48.768;11.528;2024-01-11T00:40:02;34.08;;;15.82;;
83184;SDS011;73080;48.768;11.528;2024-01-11T00:42:28;26.23;;;13.40;;
83184;SDS011;73080;48.768;11.528;2024-01-11T00:44:56;28.17;;;14.38;;
83184;SDS011;73080;48.768;11.528;2024-01-11T00:47:22;35.38;;;15.65;;
83184;SDS011;73080;48.768;11.528;2024-01-11T00:49:47;37.20;;;16.60;;
83184;SDS011;73080;48.768;11.528;2024-01-11T00:52:15;28.92;;;14.65;;
83184;SDS011;73080;48.768;11.528;2024-01-11T00:54:41;32.60;;;15.38;;
83184;SDS011;73080;48.768;11.528;2024-01-11T00:57:09;32.05;;;12.82;;
83184;SDS011;73080;48.768;11.528;2024-01-11T00:59:35;30.20;;;12.07;;
83184;SDS011;73080;48.768;11.528;2024-01-11T01:02:00;30.33;;;16.10;;
83184;SDS011;73080;48.768;11.528;2024-01-11T01:04:25;28.63;;;13.35;;
83184;SDS011;73080;48.768;11.528;2024-01-11T01:06:51;28.88;;;15.00;;
83184;SDS011;73080;48.768;11.528;2024-01-11T01:09:16;28.75;;;13.43;;
83184;SDS011;73080;48.768;11.528;2024-01-11T01:11:42;29.50;;;14.20;;
83184;SDS011;73080;48.768;11.528;2024-01-11T01:14:07;30.60;;;14.70;;
83184;SDS011;73080;48.768;11.528;2024-01-11T01:16:32;32.38;;;15.63;;
83184;SDS011;73080;48.768;11.528;2024-01-11T01:18:58;31.73;;;15.93;;
83184;SDS011;73080;48.768;11.528;2024-01-11T01:21:23;26.77;;;13.27;;
83184;SDS011;73080;48.768;11.528;2024-01-11T01:23:48;24.93;;;13.13;;
83184;SDS011;73080;48.768;11.528;2024-01-11T01:26:14;30.02;;;14.88;;
83184;SDS011;73080;48.768;11.528;2024-01-11T01:28:39;29.80;;;15.07;;
83184;SDS011;73080;48.768;11.528;2024-01-11T01:31:04;24.13;;;12.13;;
83184;SDS011;73080;48.768;11.528;2024-01-11T01:33:30;26.15;;;11.13;;
83184;SDS011;73080;48.768;11.528;2024-01-11T01:35:55;29.05;;;12.25;;
83184;SDS011;73080;48.768;11.528;2024-01-11T01:38:20;23.50;;;11.53;;
83184;SDS011;73080;48.768;11.528;2024-01-11T01:40:46;25.63;;;14.00;;
83184;SDS011;73080;48.768;11.528;2024-01-11T01:43:11;24.83;;;11.15;;
83184;SDS011;73080;48.768;11.528;2024-01-11T01:45:36;25.63;;;12.45;;
83184;SDS011;73080;48.768;11.528;2024-01-11T01:48:02;25.02;;;13.07;;
83184;SDS011;73080;48.768;11.528;2024-01-11T01:50:30;25.45;;;13.27;;
83184;SDS011;73080;48.768;11.528;2024-01-11T01:52:56;27.65;;;14.82;;
83184;SDS011;73080;48.768;11.528;2024-01-11T01:55:22;19.02;;;11.93;;
83184;SDS011;73080;48.768;11.528;2024-01-11T01:57:48;18.10;;;9.73;;
83184;SDS011;73080;48.768;11.528;2024-01-11T02:00:18;27.40;;;13.55;;
83184;SDS011;73080;48.768;11.528;2024-01-11T02:05:11;24.40;;;13.07;;
83184;SDS011;73080;48.768;11.528;2024-01-11T02:07:39;22.15;;;12.40;;
83184;SDS011;73080;48.768;11.528;2024-01-11T02:10:05;17.45;;;8.95;;
83184;SDS011;73080;48.768;11.528;2024-01-11T02:12:32;29.27;;;13.70;;
83184;SDS011;73080;48.768;11.528;2024-01-11T02:14:58;24.98;;;13.18;;
83184;SDS011;73080;48.768;11.528;2024-01-11T02:17:24;30.70;;;16.73;;
83184;SDS011;73080;48.768;11.528;2024-01-11T02:19:49;22.43;;;12.77;;
83184;SDS011;73080;48.768;11.528;2024-01-11T02:22:22;29.92;;;13.95;;
83184;SDS011;73080;48.768;11.528;2024-01-11T02:24:56;24.17;;;12.60;;
83184;SDS011;73080;48.768;11.528;2024-01-11T02:27:27;33.77;;;14.57;;
83184;SDS011;73080;48.768;11.528;2024-01-11T02:29:53;33.42;;;14.82;;
83184;SDS011;73080;48.768;11.528;2024-01-11T02:32:21;33.33;;;16.55;;
83184;SDS011;73080;48.768;11.528;2024-01-11T02:34:47;30.90;;;14.75;;
83184;SDS011;73080;48.768;11.528;2024-01-11T02:37:13;30.70;;;14.13;;
83184;SDS011;73080;48.768;11.528;2024-01-11T02:39:38;26.25;;;14.30;;
83184;SDS011;73080;48.768;11.528;2024-01-11T02:42:04;29.83;;;11.82;;
83184;SDS011;73080;48.768;11.528;2024-01-11T02:44:29;29.63;;;14.45;;
83184;SDS011;73080;48.768;11.528;2024-01-11T02:46:55;26.95;;;14.15;;
83184;SDS011;73080;48.768;11.528;2024-01-11T02:49:20;34.90;;;14.05;;
83184;SDS011;73080;48.768;11.528;2024-01-11T02:51:46;29.00;;;14.70;;
83184;SDS011;73080;48.768;11.528;2024-01-11T02:54:11;25.90;;;12.83;;
83184;SDS011;73080;48.768;11.528;2024-01-11T02:56:37;31.20;;;15.00;;
83184;SDS011;73080;48.768;11.528;2024-01-11T02:59:02;31.25;;;14.77;;
83184;SDS011;73080;48.768;11.528;2024-01-11T03:01:28;29.92;;;16.35;;
83184;SDS011;73080;48.768;11.528;2024-01-11T03:03:54;27.13;;;13.85;;
83184;SDS011;73080;48.768;11.528;2024-01-11T03:06:19;35.72;;;16.60;;
83184;SDS011;73080;48.768;11.528;2024-01-11T03:08:45;24.02;;;14.00;;
83184;SDS011;73080;48.768;11.528;2024-01-11T03:11:10;26.23;;;12.95;;
83184;SDS011;73080;48.768;11.528;2024-01-11T03:13:36;31.42;;;16.05;;
83184;SDS011;73080;48.768;11.528;2024-01-11T03:16:01;31.63;;;15.17;;
83184;SDS011;73080;48.768;11.528;2024-01-11T03:18:27;34.00;;;15.50;;
83184;SDS011;73080;48.768;11.528;2024-01-11T03:20:52;31.23;;;15.88;;
83184;SDS011;73080;48.768;11.528;2024-01-11T03:23:18;36.55;;;16.17;;
83184;SDS011;73080;48.768;11.528;2024-01-11T03:25:46;32.35;;;15.90;;
83184;SDS011;73080;48.768;11.528;2024-01-11T03:28:11;29.90;;;13.75;;
83184;SDS011;73080;48.768;11.528;2024-01-11T03:30:37;31.30;;;15.50;;
83184;SDS011;73080;48.768;11.528;2024-01-11T03:33:02;36.17;;;16.45;;
83184;SDS011;73080;48.768;11.528;2024-01-11T03:35:28;36.47;;;17.70;;
83184;SDS011;73080;48.768;11.528;2024-01-11T03:37:53;30.02;;;14.13;;
83184;SDS011;73080;48.768;11.528;2024-01-11T03:40:18;35.00;;;15.73;;
83184;SDS011;73080;48.768;11.528;2024-01-11T03:42:44;33.47;;;15.15;;
83184;SDS011;73080;48.768;11.528;2024-01-11T03:45:09;37.80;;;16.80;;
83184;SDS011;73080;48.768;11.528;2024-01-11T03:47:35;31.70;;;14.63;;
83184;SDS011;73080;48.768;11.528;2024-01-11T03:50:00;35.87;;;17.00;;
83184;SDS011;73080;48.768;11.528;2024-01-11T03:52:25;36.20;;;18.08;;
83184;SDS011;73080;48.768;11.528;2024-01-11T03:54:51;29.17;;;14.50;;
83184;SDS011;73080;48.768;11.528;2024-01-11T03:57:16;31.37;;;16.60;;
83184;SDS011;73080;48.768;11.528;2024-01-11T03:59:41;35.77;;;16.20;;
83184;SDS011;73080;48.768;11.528;2024-01-11T04:02:07;33.22;;;17.27;;
83184;SDS011;73080;48.768;11.528;2024-01-11T04:04:32;30.45;;;15.18;;
83184;SDS011;73080;48.768;11.528;2024-01-11T04:06:58;30.08;;;15.57;;
83184;SDS011;73080;48.768;11.528;2024-01-11T04:09:24;31.98;;;15.02;;
83184;SDS011;73080;48.768;11.528;2024-01-11T04:11:49;28.42;;;14.07;;
83184;SDS011;73080;48.768;11.528;2024-01-11T04:14:14;28.50;;;15.05;;
83184;SDS011;73080;48.768;11.528;2024-01-11T04:16:40;31.02;;;14.40;;
83184;SDS011;73080;48.768;11.528;2024-01-11T04:19:06;34.08;;;16.77;;
83184;SDS011;73080;48.768;11.528;2024-01-11T04:21:35;26.67;;;14.48;;
83184;SDS011;73080;48.768;11.528;2024-01-11T04:24:03;31.73;;;16.00;;
83184;SDS011;73080;48.768;11.528;2024-01-11T04:26:29;32.17;;;16.45;;
83184;SDS011;73080;48.768;11.528;2024-01-11T04:28:54;33.88;;;16.15;;
83184;SDS011;73080;48.768;11.528;2024-01-11T04:31:20;29.40;;;14.85;;
83184;SDS011;73080;48.768;11.528;2024-01-11T04:33:46;31.45;;;15.43;;
83184;SDS011;73080;48.768;11.528;2024-01-11T04:36:12;32.50;;;16.00;;
83184;SDS011;73080;48.768;11.528;2024-01-11T04:38:38;31.63;;;15.32;;
83184;SDS011;73080;48.768;11.528;2024-01-11T04:41:10;27.40;;;14.30;;
83184;SDS011;73080;48.768;11.528;2024-01-11T04:43:37;28.13;;;11.93;;
83184;SDS011;73080;48.768;11.528;2024-01-11T04:46:03;28.83;;;14.55;;
83184;SDS011;73080;48.768;11.528;2024-01-11T04:48:29;28.10;;;13.95;;
83184;SDS011;73080;48.768;11.528;2024-01-11T04:50:54;26.88;;;14.48;;
83184;SDS011;73080;48.768;11.528;2024-01-11T04:53:19;34.03;;;15.87;;
83184;SDS011;73080;48.768;11.528;2024-01-11T04:55:45;30.27;;;14.25;;
83184;SDS011;73080;48.768;11.528;2024-01-11T04:58:10;35.50;;;18.55;;
83184;SDS011;73080;48.768;11.528;2024-01-11T05:00:35;43.47;;;18.70;;
83184;SDS011;73080;48.768;11.528;2024-01-11T05:03:01;40.15;;;17.70;;
83184;SDS011;73080;48.768;11.528;2024-01-11T05:05:26;42.88;;;19.17;;
83184;SDS011;73080;48.768;11.528;2024-01-11T05:07:52;32.50;;;17.67;;
83184;SDS011;73080;48.768;11.528;2024-01-11T05:10:17;33.50;;;16.85;;
83184;SDS011;73080;48.768;11.528;2024-01-11T05:12:42;35.72;;;15.95;;
83184;SDS011;73080;48.768;11.528;2024-01-11T05:15:08;35.10;;;16.73;;
83184;SDS011;73080;48.768;11.528;2024-01-11T05:17:34;38.50;;;16.60;;
83184;SDS011;73080;48.768;11.528;2024-01-11T05:19:59;34.55;;;14.88;;
83184;SDS011;73080;48.768;11.528;2024-01-11T05:22:24;33.70;;;13.10;;
83184;SDS011;73080;48.768;11.528;2024-01-11T05:24:53;32.88;;;16.65;;
83184;SDS011;73080;48.768;11.528;2024-01-11T05:27:18;31.90;;;15.30;;
83184;SDS011;73080;48.768;11.528;2024-01-11T05:29:43;35.97;;;16.57;;
83184;SDS011;73080;48.768;11.528;2024-01-11T05:32:09;37.05;;;17.10;;
83184;SDS011;73080;48.768;11.528;2024-01-11T05:34:34;31.45;;;15.20;;
83184;SDS011;73080;48.768;11.528;2024-01-11T05:36:59;32.08;;;17.13;;
83184;SDS011;73080;48.768;11.528;2024-01-11T05:39:25;26.13;;;13.63;;
83184;SDS011;73080;48.768;11.528;2024-01-11T05:41:50;24.88;;;13.63;;
83184;SDS011;73080;48.768;11.528;2024-01-11T05:44:16;26.73;;;12.32;;
83184;SDS011;73080;48.768;11.528;2024-01-11T05:46:42;35.80;;;13.52;;
83184;SDS011;73080;48.768;11.528;2024-01-11T05:49:07;27.95;;;15.25;;
83184;SDS011;73080;48.768;11.528;2024-01-11T05:51:32;32.03;;;14.23;;
83184;SDS011;73080;48.768;11.528;2024-01-11T05:53:58;32.65;;;15.93;;
83184;SDS011;73080;48.768;11.528;2024-01-11T05:56:23;36.28;;;15.75;;
83184;SDS011;73080;48.768;11.528;2024-01-11T05:58:49;32.92;;;15.93;;
83184;SDS011;73080;48.768;11.528;2024-01-11T06:01:14;36.28;;;16.23;;
83184;SDS011;73080;48.768;11.528;2024-01-11T06:03:39;32.70;;;16.67;;
83184;SDS011;73080;48.768;11.528;2024-01-11T06:06:05;30.52;;;13.63;;
83184;SDS011;73080;48.768;11.528;2024-01-11T06:08:31;26.17;;;14.73;;
83184;SDS011;73080;48.768;11.528;2024-01-11T06:10:59;27.55;;;15.40;;
83184;SDS011;73080;48.768;11.528;2024-01-11T06:15:53;31.57;;;15.93;;
83184;SDS011;73080;48.768;11.528;2024-01-11T06:18:19;35.35;;;15.75;;
83184;SDS011;73080;48.768;11.528;2024-01-11T06:20:44;35.97;;;15.90;;
83184;SDS011;73080;48.768;11.528;2024-01-11T06:23:10;34.05;;;15.45;;
83184;SDS011;73080;48.768;11.528;2024-01-11T06:25:35;36.95;;;18.25;;
83184;SDS011;73080;48.768;11.528;2024-01-11T06:28:02;37.63;;;16.67;;
83184;SDS011;73080;48.768;11.528;2024-01-11T06:30:28;44.97;;;18.40;;
83184;SDS011;73080;48.768;11.528;2024-01-11T06:32:54;40.78;;;17.58;;
83184;SDS011;73080;48.768;11.528;2024-01-11T06:35:19;37.67;;;18.92;;
83184;SDS011;73080;48.768;11.528;2024-01-11T06:37:45;34.27;;;15.07;;
83184;SDS011;73080;48.768;11.528;2024-01-11T06:40:10;39.15;;;18.02;;
83184;SDS011;73080;48.768;11.528;2024-01-11T06:42:39;33.13;;;14.52;;
83184;SDS011;73080;48.768;11.528;2024-01-11T06:45:04;29.38;;;16.55;;
83184;SDS011;73080;48.768;11.528;2024-01-11T06:47:30;33.63;;;18.17;;
83184;SDS011;73080;48.768;11.528;2024-01-11T06:49:55;40.83;;;19.97;;
83184;SDS011;73080;48.768;11.528;2024-01-11T06:52:21;41.63;;;22.95;;
83184;SDS011;73080;48.768;11.528;2024-01-11T06:54:46;45.95;;;23.00;;
83184;SDS011;73080;48.768;11.528;2024-01-11T06:57:12;50.88;;;23.65;;
83184;SDS011;73080;48.768;11.528;2024-01-11T06:59:40;40.08;;;17.92;;
83184;SDS011;73080;48.768;11.528;2024-01-11T07:02:06;32.53;;;18.92;;
83184;SDS011;73080;48.768;11.528;2024-01-11T07:04:31;43.47;;;18.98;;
83184;SDS011;73080;48.768;11.528;2024-01-11T07:06:56;36.25;;;21.20;;
83184;SDS011;73080;48.768;11.528;2024-01-11T07:09:22;38.95;;;18.48;;
83184;SDS011;73080;48.768;11.528;2024-01-11T07:11:47;36.80;;;20.67;;
83184;SDS011;73080;48.768;11.528;2024-01-11T07:14:13;42.03;;;19.77;;
83184;SDS011;73080;48.768;11.528;2024-01-11T07:16:38;38.57;;;21.33;;
83184;SDS011;73080;48.768;11.528;2024-01-11T07:19:03;43.67;;;21.70;;
83184;SDS011;73080;48.768;11.528;2024-01-11T07:21:29;38.22;;;19.88;;
83184;SDS011;73080;48.768;11.528;2024-01-11T07:24:03;38.63;;;19.08;;
83184;SDS011;73080;48.768;11.528;2024-01-11T07:26:28;50.25;;;29.13;;
83184;SDS011;73080;48.768;11.528;2024-01-11T07:28:54;48.30;;;23.47;;
83184;SDS011;73080;48.768;11.528;2024-01-11T07:31:19;39.67;;;21.77;;
83184;SDS011;73080;48.768;11.528;2024-01-11T07:33:44;45.67;;;22.80;;
83184;SDS011;73080;48.768;11.528;2024-01-11T07:36:10;41.38;;;20.65;;
83184;SDS011;73080;48.768;11.528;2024-01-11T07:38:36;35.08;;;18.45;;
83184;SDS011;73080;48.768;11.528;2024-01-11T07:41:01;34.25;;;19.70;;
83184;SDS011;73080;48.768;11.528;2024-01-11T07:43:27;40.13;;;19.33;;
83184;SDS011;73080;48.768;11.528;2024-01-11T07:45:52;35.90;;;17.52;;
83184;SDS011;73080;48.768;11.528;2024-01-11T07:48:18;41.70;;;20.25;;
83184;SDS011;73080;48.768;11.528;2024-01-11T07:50:43;35.92;;;20.30;;
83184;SDS011;73080;48.768;11.528;2024-01-11T07:53:08;37.28;;;18.98;;
83184;SDS011;73080;48.768;11.528;2024-01-11T07:55:34;34.47;;;17.10;;
83184;SDS011;73080;48.768;11.528;2024-01-11T07:57:59;33.65;;;17.83;;
83184;SDS011;73080;48.768;11.528;2024-01-11T08:00:28;37.28;;;19.05;;
83184;SDS011;73080;48.768;11.528;2024-01-11T08:02:53;37.38;;;20.05;;
83184;SDS011;73080;48.768;11.528;2024-01-11T08:05:22;36.00;;;17.23;;
83184;SDS011;73080;48.768;11.528;2024-01-11T08:07:47;35.60;;;17.08;;
83184;SDS011;73080;48.768;11.528;2024-01-11T08:10:13;34.78;;;17.13;;
83184;SDS011;73080;48.768;11.528;2024-01-11T08:12:38;34.43;;;18.23;;
83184;SDS011;73080;48.768;11.528;2024-01-11T08:15:04;38.05;;;20.60;;
83184;SDS011;73080;48.768;11.528;2024-01-11T08:17:29;41.63;;;20.17;;
83184;SDS011;73080;48.768;11.528;2024-01-11T08:19:55;35.17;;;18.37;;
83184;SDS011;73080;48.768;11.528;2024-01-11T08:22:20;40.40;;;18.80;;
83184;SDS011;73080;48.768;11.528;2024-01-11T08:24:46;36.88;;;19.67;;
83184;SDS011;73080;48.768;11.528;2024-01-11T08:27:11;38.75;;;18.77;;
83184;SDS011;73080;48.768;11.528;2024-01-11T08:29:36;41.97;;;19.77;;
83184;SDS011;73080;48.768;11.528;2024-01-11T08:32:02;36.03;;;19.77;;
83184;SDS011;73080;48.768;11.528;2024-01-11T08:34:28;43.28;;;21.67;;
83184;SDS011;73080;48.768;11.528;2024-01-11T08:36:53;45.03;;;19.67;;
83184;SDS011;73080;48.768;11.528;2024-01-11T08:39:18;43.72;;;23.92;;
83184;SDS011;73080;48.768;11.528;2024-01-11T08:41:44;38.20;;;21.02;;
83184;SDS011;73080;48.768;11.528;2024-01-11T08:44:09;21.73;;;13.77;;
83184;SDS011;73080;48.768;11.528;2024-01-11T08:46:35;39.33;;;21.20;;
83184;SDS011;73080;48.768;11.528;2024-01-11T08:49:01;40.15;;;20.38;;
83184;SDS011;73080;48.768;11.528;2024-01-11T08:51:30;37.38;;;19.08;;
83184;SDS011;73080;48.768;11.528;2024-01-11T08:53:56;36.28;;;18.65;;
83184;SDS011;73080;48.768;11.528;2024-01-11T08:56:21;39.63;;;21.42;;
83184;SDS011;73080;48.768;11.528;2024-01-11T08:58:47;38.10;;;21.05;;
83184;SDS011;73080;48.768;11.528;2024-01-11T09:01:13;38.67;;;19.25;;
83184;SDS011;73080;48.768;11.528;2024-01-11T09:03:38;37.90;;;20.08;;
83184;SDS011;73080;48.768;11.528;2024-01-11T09:06:03;35.70;;;20.00;;
83184;SDS011;73080;48.768;11.528;2024-01-11T09:08:29;35.72;;;17.90;;
83184;SDS011;73080;48.768;11.528;2024-01-11T09:10:55;29.00;;;12.13;;
83184;SDS011;73080;48.768;11.528;2024-01-11T09:13:20;37.95;;;19.58;;
83184;SDS011;73080;48.768;11.528;2024-01-11T09:15:46;37.47;;;19.30;;
83184;SDS011;73080;48.768;11.528;2024-01-11T09:18:11;38.97;;;19.88;;
83184;SDS011;73080;48.768;11.528;2024-01-11T09:20:37;41.83;;;22.10;;
83184;SDS011;73080;48.768;11.528;2024-01-11T09:23:02;37.92;;;20.75;;
83184;SDS011;73080;48.768;11.528;2024-01-11T09:25:28;29.38;;;15.98;;
83184;SDS011;73080;48.768;11.528;2024-01-11T09:27:53;35.53;;;18.90;;
83184;SDS011;73080;48.768;11.528;2024-01-11T09:30:19;45.08;;;21.40;;
83184;SDS011;73080;48.768;11.528;2024-01-11T09:32:44;37.73;;;21.37;;
83184;SDS011;73080;48.768;11.528;2024-01-11T09:35:12;35.00;;;19.13;;
83184;SDS011;73080;48.768;11.528;2024-01-11T09:40:06;36.37;;;16.93;;
83184;SDS011;73080;48.768;11.528;2024-01-11T09:42:32;38.00;;;20.60;;
83184;SDS011;73080;48.768;11.528;2024-01-11T09:45:00;50.42;;;21.90;;
83184;SDS011;73080;48.768;11.528;2024-01-11T09:47:27;37.03;;;19.58;;
83184;SDS011;73080;48.768;11.528;2024-01-11T09:49:53;37.83;;;20.58;;
83184;SDS011;73080;48.768;11.528;2024-01-11T09:52:22;39.88;;;21.38;;
83184;SDS011;73080;48.768;11.528;2024-01-11T09:54:48;35.90;;;17.48;;
83184;SDS011;73080;48.768;11.528;2024-01-11T09:57:14;37.58;;;19.30;;
83184;SDS011;73080;48.768;11.528;2024-01-11T09:59:41;43.05;;;21.70;;
83184;SDS011;73080;48.768;11.528;2024-01-11T10:02:11;45.63;;;21.98;;
83184;SDS011;73080;48.768;11.528;2024-01-11T10:04:37;40.33;;;22.73;;
83184;SDS011;73080;48.768;11.528;2024-01-11T10:07:03;40.85;;;20.80;;
83184;SDS011;73080;48.768;11.528;2024-01-11T10:09:30;38.55;;;19.17;;
83184;SDS011;73080;48.768;11.528;2024-01-11T10:11:55;46.03;;;21.13;;
83184;SDS011;73080;48.768;11.528;2024-01-11T10:14:21;35.70;;;19.90;;
83184;SDS011;73080;48.768;11.528;2024-01-11T10:16:47;44.60;;;21.42;;
83184;SDS011;73080;48.768;11.528;2024-01-11T10:19:13;38.78;;;19.33;;
83184;SDS011;73080;48.768;11.528;2024-01-11T10:21:38;41.15;;;20.13;;
83184;SDS011;73080;48.768;11.528;2024-01-11T10:24:04;37.35;;;22.40;;
83184;SDS011;73080;48.768;11.528;2024-01-11T10:26:29;40.50;;;22.05;;
83184;SDS011;73080;48.768;11.528;2024-01-11T10:28:58;44.35;;;21.75;;
83184;SDS011;73080;48.768;11.528;2024-01-11T10:31:24;37.55;;;20.27;;
83184;SDS011;73080;48.768;11.528;2024-01-11T10:33:53;37.13;;;19.52;;
83184;SDS011;73080;48.768;11.528;2024-01-11T10:36:18;42.67;;;21.47;;
83184;SDS011;73080;48.768;11.528;2024-01-11T10:38:43;37.40;;;20.40;;
83184;SDS011;73080;48.768;11.528;2024-01-11T10:41:12;41.00;;;20.23;;
83184;SDS011;73080;48.768;11.528;2024-01-11T10:43:39;40.72;;;21.70;;
83184;SDS011;73080;48.768;11.528;2024-01-11T10:46:06;43.70;;;22.85;;
83184;SDS011;73080;48.768;11.528;2024-01-11T10:48:37;42.90;;;20.73;;
83184;SDS011;73080;48.768;11.528;2024-01-11T10:51:04;39.22;;;20.08;;
83184;SDS011;73080;48.768;11.528;2024-01-11T10:56:06;40.60;;;20.48;;
83184;SDS011;73080;48.768;11.528;2024-01-11T10:58:34;43.20;;;19.48;;
83184;SDS011;73080;48.768;11.528;2024-01-11T11:01:00;39.67;;;17.92;;
83184;SDS011;73080;48.768;11.528;2024-01-11T11:03:27;37.90;;;18.67;;
83184;SDS011;73080;48.768;11.528;2024-01-11T11:05:58;44.67;;;20.55;;
83184;SDS011;73080;48.768;11.528;2024-01-11T11:08:24;43.42;;;20.20;;
83184;SDS011;73080;48.768;11.528;2024-01-11T11:10:51;40.25;;;19.75;;
83184;SDS011;73080;48.768;11.528;2024-01-11T11:13:19;37.72;;;20.15;;
83184;SDS011;73080;48.768;11.528;2024-01-11T11:15:46;40.22;;;18.25;;
83184;SDS011;73080;48.768;11.528;2024-01-11T11:18:13;33.63;;;17.05;;
83184;SDS011;73080;48.768;11.528;2024-01-11T11:20:41;37.00;;;18.55;;
83184;SDS011;73080;48.768;11.528;2024-01-11T11:23:07;32.78;;;16.65;;
83184;SDS011;73080;48.768;11.528;2024-01-11T11:25:33;37.47;;;17.92;;
83184;SDS011;73080;48.768;11.528;2024-01-11T11:28:02;35.60;;;17.45;;
83184;SDS011;73080;48.768;11.528;2024-01-11T11:30:28;38.10;;;18.80;;
83184;SDS011;73080;48.768;11.528;2024-01-11T11:32:54;37.05;;;19.90;;
83184;SDS011;73080;48.768;11.528;2024-01-11T11:35:22;34.95;;;20.70;;
83184;SDS011;73080;48.768;11.528;2024-01-11T11:37:48;35.15;;;19.35;;
83184;SDS011;73080;48.768;11.528;2024-01-11T11:40:13;37.70;;;19.20;;
83184;SDS011;73080;48.768;11.528;2024-01-11T11:42:41;39.58;;;18.83;;
83184;SDS011;73080;48.768;11.528;2024-01-11T11:45:10;34.85;;;17.35;;
83184;SDS011;73080;48.768;11.528;2024-01-11T11:47:36;39.67;;;20.27;;
83184;SDS011;73080;48.768;11.528;2024-01-11T11:50:08;33.67;;;17.65;;
83184;SDS011;73080;48.768;11.528;2024-01-11T11:52:35;37.88;;;18.05;;
83184;SDS011;73080;48.768;11.528;2024-01-11T11:55:02;37.00;;;19.38;;
83184;SDS011;73080;48.768;11.528;2024-01-11T11:57:28;32.28;;;17.27;;
83184;SDS011;73080;48.768;11.528;2024-01-11T11:59:58;32.60;;;18.60;;
83184;SDS011;73080;48.768;11.528;2024-01-11T12:02:24;34.67;;;17.73;;
83184;SDS011;73080;48.768;11.528;2024-01-11T12:04:51;31.75;;;18.63;;
83184;SDS011;73080;48.768;11.528;2024-01-11T12:07:17;38.17;;;21.40;;
83184;SDS011;73080;48.768;11.528;2024-01-11T12:09:43;33.58;;;17.70;;
83184;SDS011;73080;48.768;11.528;2024-01-11T12:12:08;38.03;;;20.27;;
83184;SDS011;73080;48.768;11.528;2024-01-11T12:14:34;36.05;;;18.85;;
83184;SDS011;73080;48.768;11.528;2024-01-11T12:17:00;32.47;;;18.55;;
83184;SDS011;73080;48.768;11.528;2024-01-11T12:19:26;33.28;;;18.67;;
83184;SDS011;73080;48.768;11.528;2024-01-11T12:21:52;38.45;;;19.80;;
83184;SDS011;73080;48.768;11.528;2024-01-11T12:24:18;34.42;;;18.88;;
83184;SDS011;73080;48.768;11.528;2024-01-11T12:26:44;39.17;;;19.65;;
83184;SDS011;73080;48.768;11.528;2024-01-11T12:29:09;26.13;;;13.95;;
83184;SDS011;73080;48.768;11.528;2024-01-11T12:31:35;30.85;;;14.18;;
83184;SDS011;73080;48.768;11.528;2024-01-11T12:34:01;37.70;;;17.43;;
83184;SDS011;73080;48.768;11.528;2024-01-11T12:36:27;37.28;;;18.88;;
83184;SDS011;73080;48.768;11.528;2024-01-11T12:38:53;38.60;;;18.23;;
83184;SDS011;73080;48.768;11.528;2024-01-11T12:41:20;31.15;;;17.38;;
83184;SDS011;73080;48.768;11.528;2024-01-11T12:43:47;36.58;;;18.05;;
83184;SDS011;73080;48.768;11.528;2024-01-11T12:46:12;35.03;;;18.33;;
83184;SDS011;73080;48.768;11.528;2024-01-11T12:48:38;33.13;;;17.20;;
83184;SDS011;73080;48.768;11.528;2024-01-11T12:51:04;37.85;;;19.80;;
83184;SDS011;73080;48.768;11.528;2024-01-11T12:53:30;34.67;;;18.15;;
83184;SDS011;73080;48.768;11.528;2024-01-11T12:56:05;36.65;;;17.25;;
83184;SDS011;73080;48.768;11.528;2024-01-11T12:58:31;34.70;;;17.58;;
83184;SDS011;73080;48.768;11.528;2024-01-11T13:00:57;35.37;;;18.50;;
83184;SDS011;73080;48.768;11.528;2024-01-11T13:03:22;32.92;;;16.80;;
83184;SDS011;73080;48.768;11.528;2024-01-11T13:05:50;33.50;;;18.70;;
83184;SDS011;73080;48.768;11.528;2024-01-11T13:08:16;38.45;;;17.95;;
83184;SDS011;73080;48.768;11.528;2024-01-11T13:10:41;33.35;;;18.45;;
83184;SDS011;73080;48.768;11.528;2024-01-11T13:13:07;31.17;;;16.27;;
83184;SDS011;73080;48.768;11.528;2024-01-11T13:15:32;37.27;;;18.20;;
83184;SDS011;73080;48.768;11.528;2024-01-11T13:17:58;34.50;;;18.40;;
83184;SDS011;73080;48.768;11.528;2024-01-11T13:20:25;36.58;;;18.35;;
83184;SDS011;73080;48.768;11.528;2024-01-11T13:23:00;35.30;;;20.33;;
83184;SDS011;73080;48.768;11.528;2024-01-11T13:25:43;32.20;;;16.92;;
83184;SDS011;73080;48.768;11.528;2024-01-11T13:28:09;35.03;;;18.45;;
83184;SDS011;73080;48.768;11.528;2024-01-11T13:30:35;36.20;;;19.45;;
83184;SDS011;73080;48.768;11.528;2024-01-11T13:33:00;35.00;;;18.30;;
83184;SDS011;73080;48.768;11.528;2024-01-11T13:35:26;38.45;;;19.88;;
83184;SDS011;73080;48.768;11.528;2024-01-11T13:37:51;36.90;;;17.55;;
83184;SDS011;73080;48.768;11.528;2024-01-11T13:40:20;30.73;;;15.50;;
83184;SDS011;73080;48.768;11.528;2024-01-11T13:47:35;33.80;;;16.80;;
83184;SDS011;73080;48.768;11.528;2024-01-11T13:50:01;34.45;;;18.35;;
83184;SDS011;73080;48.768;11.528;2024-01-11T13:52:26;34.15;;;17.38;;
83184;SDS011;73080;48.768;11.528;2024-01-11T13:54:52;32.85;;;18.33;;
83184;SDS011;73080;48.768;11.528;2024-01-11T13:57:17;36.37;;;18.50;;
83184;SDS011;73080;48.768;11.528;2024-01-11T13:59:43;24.25;;;13.88;;
83184;SDS011;73080;48.768;11.528;2024-01-11T14:02:09;36.70;;;18.25;;
83184;SDS011;73080;48.768;11.528;2024-01-11T14:04:34;36.22;;;19.45;;
83184;SDS011;73080;48.768;11.528;2024-01-11T14:07:03;38.45;;;20.60;;
83184;SDS011;73080;48.768;11.528;2024-01-11T14:09:29;38.22;;;19.67;;
83184;SDS011;73080;48.768;11.528;2024-01-11T14:11:54;40.92;;;22.98;;
83184;SDS011;73080;48.768;11.528;2024-01-11T14:14:20;42.67;;;22.70;;
83184;SDS011;73080;48.768;11.528;2024-01-11T14:16:46;42.03;;;23.23;;